Time;durP1;ratioP1;P1;durP2;ratioP2;P2;SDS_P1;SDS_P2;PMS_P1;PMS_P2;Temp;Humidity;BMP_temperature;BMP_pressure;BME280_temperature;BME280_humidity;BME280_pressure;Samples;Min_cycle;Max_cycle;Signal;HPM_P1;HPM_P2
2022/11/06 00:00:06;;;;;;;0.10;0.10;;;7.80;99.90;;;;;;5119601;28;20016;-78
2022/11/06 00:02:32;;;;;;;0.10;0.10;;;7.80;99.90;;;;;;5099987;28;20024;-75
2022/11/06 00:06:46;;;;;;;0.10;0.10;;;7.80;99.90;;;;;;5117875;28;20023;-75
2022/11/06 00:07:47;;;;;;;0.20;0.20;;;7.80;99.90;;;;;;5112388;28;20036;-76
2022/11/06 00:10:15;;;;;;;0.10;0.10;;;7.80;99.90;;;;;;5070311;28;20028;-76
2022/11/06 00:12:46;;;;;;;0.10;0.10;;;7.80;99.90;;;;;;5086867;28;20024;-75
2022/11/06 00:15:12;;;;;;;0.20;0.20;;;7.80;99.90;;;;;;5086475;28;20367;-77
2022/11/06 00:17:38;;;;;;;0.10;0.10;;;7.80;99.90;;;;;;5086399;28;20032;-76
2022/11/06 00:20:05;;;;;;;0.10;0.10;;;7.80;99.90;;;;;;5088127;28;20044;-77
2022/11/06 00:37:02;;;;;;;0.10;0.10;;;8.70;99.90;;;;;;5073449;28;20047;-75
2022/11/06 00:48:37;;;;;;;0.10;0.10;;;7.70;99.90;;;;;;6010472;22;20534;-76
2022/11/06 00:51:08;;;;;;;0.00;0.00;;;5.80;99.90;;;;;;5074724;28;20161;-77
2022/11/06 00:53:38;;;;;;;0.20;0.20;;;7.70;99.90;;;;;;5072248;28;20029;-76
2022/11/06 00:56:17;;;;;;;0.10;0.10;;;7.70;99.90;;;;;;5071485;28;20102;-76
2022/11/06 00:58:45;;;;;;;0.10;0.10;;;7.70;99.90;;;;;;5068375;28;20530;-76
2022/11/06 01:01:22;;;;;;;0.10;0.10;;;7.80;99.90;;;;;;5070348;28;20040;-75
2022/11/06 01:03:59;;;;;;;0.52;0.52;;;7.80;99.90;;;;;;5052148;28;20040;-77
2022/11/06 01:06:32;;;;;;;0.10;0.10;;;7.70;99.90;;;;;;5067552;28;20049;-76
2022/11/06 01:09:02;;;;;;;0.20;0.20;;;7.80;99.90;;;;;;5086079;28;20012;-75
2022/11/06 01:11:34;;;;;;;0.10;0.10;;;7.80;99.90;;;;;;5096538;28;20072;-75
2022/11/06 01:14:25;;;;;;;0.17;0.17;;;7.80;99.90;;;;;;5078954;28;20073;-77
2022/11/06 01:16:52;;;;;;;0.10;0.10;;;7.80;99.90;;;;;;5097337;28;20064;-77
2022/11/06 01:19:42;;;;;;;0.13;0.13;;;7.70;99.90;;;;;;5095912;28;20089;-79
2022/11/06 01:22:08;;;;;;;0.10;0.10;;;7.70;99.90;;;;;;5095487;28;20108;-76
2022/11/06 01:24:55;;;;;;;2.38;2.28;;;7.80;99.90;;;;;;5096553;28;20024;-75
2022/11/06 01:27:20;;;;;;;4.03;3.85;;;7.80;99.90;;;;;;5095746;28;20027;-75
2022/11/06 01:29:46;;;;;;;0.10;0.10;;;7.80;99.90;;;;;;5095089;28;20017;-76
2022/11/06 01:32:12;;;;;;;0.05;0.05;;;7.90;99.90;;;;;;5095981;28;20008;-78
2022/11/06 01:34:38;;;;;;;0.10;0.10;;;7.90;99.90;;;;;;5096056;28;20025;-76
2022/11/06 01:37:05;;;;;;;0.03;0.03;;;7.90;99.90;;;;;;5095463;28;20016;-76
2022/11/06 01:39:33;;;;;;;0.10;0.10;;;7.90;99.90;;;;;;5061977;28;20009;-77
2022/11/06 01:42:27;;;;;;;6.07;5.78;;;7.90;99.90;;;;;;5096049;28;20005;-76
2022/11/06 01:47:29;;;;;;;0.20;0.20;;;7.90;99.90;;;;;;1133799;26;20438;-76
2022/11/06 01:50:01;;;;;;;0.10;0.10;;;7.90;99.90;;;;;;5099674;28;20068;-76
2022/11/06 01:52:29;;;;;;;0.10;0.10;;;7.90;99.90;;;;;;5097860;28;20033;-76
2022/11/06 01:55:23;;;;;;;0.10;0.10;;;7.90;99.90;;;;;;5099824;28;20021;-76
2022/11/06 01:57:49;;;;;;;0.60;0.60;;;7.90;99.90;;;;;;5100506;28;20040;-76
2022/11/06 02:00:16;;;;;;;0.10;0.10;;;7.90;99.90;;;;;;5081232;28;20009;-76
2022/11/06 02:03:05;;;;;;;0.20;0.20;;;7.90;99.90;;;;;;5096694;28;20057;-75
2022/11/06 02:05:56;;;;;;;0.15;0.15;;;7.90;99.90;;;;;;5099119;28;20036;-75
2022/11/06 02:08:43;;;;;;;0.20;0.20;;;7.90;99.90;;;;;;5099518;28;20021;-76
2022/11/06 02:11:32;;;;;;;0.10;0.10;;;7.80;99.90;;;;;;5099092;28;20037;-76
2022/11/06 02:14:32;;;;;;;0.10;0.10;;;7.70;99.90;;;;;;5097100;28;20015;-76
2022/11/06 02:17:34;;;;;;;0.10;0.10;;;7.80;99.90;;;;;;5097290;28;20055;-75
2022/11/06 02:20:10;;;;;;;0.10;0.10;;;7.80;99.90;;;;;;5097915;28;20013;-81
2022/11/06 02:22:35;;;;;;;0.10;0.10;;;7.90;99.90;;;;;;5098631;28;20021;-76
2022/11/06 02:25:26;;;;;;;0.10;0.10;;;7.90;99.90;;;;;;5079469;28;20024;-76
2022/11/06 02:28:40;;;;;;;0.17;0.17;;;7.90;99.90;;;;;;5098239;28;20047;-76
2022/11/06 02:31:13;;;;;;;0.35;0.35;;;7.90;99.90;;;;;;5081230;28;20001;-76
2022/11/06 02:33:57;;;;;;;0.10;0.10;;;7.90;99.90;;;;;;5099466;28;20015;-76
2022/11/06 02:36:32;;;;;;;0.10;0.10;;;8.00;99.90;;;;;;5081018;28;20028;-77
2022/11/06 02:39:02;;;;;;;0.10;0.10;;;8.00;99.90;;;;;;5080975;28;20011;-78
2022/11/06 02:41:32;;;;;;;0.10;0.10;;;8.00;99.90;;;;;;5081787;28;20025;-78
2022/11/06 02:44:01;;;;;;;0.10;0.10;;;8.00;99.90;;;;;;5081943;28;20032;-76
2022/11/06 02:46:30;;;;;;;0.20;0.20;;;8.00;99.90;;;;;;5099313;28;20031;-76
2022/11/06 02:49:27;;;;;;;0.10;0.10;;;8.00;99.90;;;;;;5095519;28;20030;-77
2022/11/06 02:52:17;;;;;;;0.10;0.10;;;8.00;99.90;;;;;;5093986;28;20019;-80
2022/11/06 02:54:48;;;;;;;0.10;0.10;;;8.00;99.90;;;;;;5118633;28;20004;-76
2022/11/06 02:57:17;;;;;;;0.13;0.13;;;7.90;99.90;;;;;;5120981;23;20077;-76
2022/11/06 03:00:24;;;;;;;0.10;0.10;;;7.90;99.90;;;;;;5116814;28;20065;-76
2022/11/06 03:03:36;;;;;;;0.00;0.00;;;7.80;99.90;;;;;;5118882;28;20058;-76
2022/11/06 03:06:19;;;;;;;0.10;0.10;;;8.00;99.90;;;;;;5091268;28;20012;-77
2022/11/06 03:08:56;;;;;;;0.20;0.20;;;8.00;99.90;;;;;;5113149;28;20029;-77
2022/11/06 03:11:29;;;;;;;0.10;0.10;;;7.90;99.90;;;;;;5092310;28;20023;-76
2022/11/06 03:14:06;;;;;;;0.28;0.28;;;7.80;99.90;;;;;;5094383;28;20156;-76
2022/11/06 03:16:44;;;;;;;0.20;0.20;;;7.90;99.90;;;;;;5093729;28;20050;-76
2022/11/06 03:19:18;;;;;;;0.17;0.17;;;7.90;99.90;;;;;;5094116;28;20028;-77
2022/11/06 03:21:57;;;;;;;0.10;0.10;;;7.90;99.90;;;;;;5093690;28;20028;-77
2022/11/06 03:24:35;;;;;;;0.20;0.20;;;7.90;99.90;;;;;;5104964;28;20019;-77
2022/11/06 03:27:13;;;;;;;0.13;0.13;;;7.90;99.90;;;;;;5114352;28;20074;-76
2022/11/06 03:29:42;;;;;;;;;;;7.90;99.90;;;;;;5111064;23;20100;-80
2022/11/06 03:32:17;;;;;;;0.10;0.10;;;7.90;99.90;;;;;;5133322;28;19904;-78
2022/11/06 03:35:21;;;;;;;0.10;0.10;;;7.90;99.90;;;;;;5101023;28;20020;-76
2022/11/06 03:38:08;;;;;;;0.10;0.10;;;7.90;99.90;;;;;;5039813;28;20025;-76
2022/11/06 03:40:39;;;;;;;0.10;0.10;;;8.00;99.90;;;;;;5022700;28;20029;-77
2022/11/06 03:43:08;;;;;;;0.10;0.10;;;8.00;99.90;;;;;;5017485;28;20030;-76
2022/11/06 03:45:38;;;;;;;0.40;0.40;;;7.90;99.90;;;;;;5001886;28;20135;-76
2022/11/06 03:48:22;;;;;;;0.20;0.20;;;7.90;99.90;;;;;;5001770;28;20033;-76
2022/11/06 03:56:07;;;;;;;0.10;0.10;;;6.70;99.90;;;;;;5197132;22;20273;-76
2022/11/06 03:58:38;;;;;;;0.10;0.10;;;8.00;99.90;;;;;;5047195;28;20203;-76
2022/11/06 04:01:07;;;;;;;0.10;0.10;;;8.00;99.90;;;;;;5029374;28;20349;-77
2022/11/06 04:03:54;;;;;;;0.10;0.10;;;8.00;99.90;;;;;;5030541;28;20576;-76
2022/11/06 04:06:42;;;;;;;0.10;0.10;;;8.00;99.90;;;;;;5030900;28;20032;-75
2022/11/06 04:14:49;;;;;;;0.10;0.10;;;7.90;99.90;;;;;;5059856;28;20036;-77
2022/11/06 04:17:16;;;;;;;0.10;0.10;;;8.00;99.90;;;;;;5060239;28;20187;-77
2022/11/06 04:19:50;;;;;;;0.00;0.00;;;8.00;99.90;;;;;;5041450;28;20093;-76
2022/11/06 04:22:31;;;;;;;0.85;0.85;;;7.90;99.90;;;;;;5057954;28;20021;-76
2022/11/06 04:28:58;;;;;;;0.10;0.10;;;7.90;99.90;;;;;;5052315;28;20032;-76
2022/11/06 04:31:50;;;;;;;0.10;0.10;;;7.80;99.90;;;;;;4969386;28;20041;-76
2022/11/06 04:34:27;;;;;;;0.10;0.10;;;7.80;99.90;;;;;;4967898;28;20700;-76
2022/11/06 04:37:20;;;;;;;0.20;0.20;;;7.80;99.90;;;;;;4968466;28;20031;-76
2022/11/06 04:39:58;;;;;;;0.10;0.10;;;7.80;99.90;;;;;;4951776;28;20437;-76
2022/11/06 04:42:43;;;;;;;0.10;0.10;;;7.80;99.90;;;;;;4968002;28;20043;-76
2022/11/06 04:45:36;;;;;;;0.10;0.10;;;7.80;99.90;;;;;;4948774;28;20031;-76
2022/11/06 04:48:03;;;;;;;0.20;0.20;;;7.80;99.90;;;;;;4947784;29;20047;-76
2022/11/06 04:50:34;;;;;;;0.20;0.20;;;7.80;99.90;;;;;;4946908;29;20023;-76
2022/11/06 04:53:03;;;;;;;0.52;0.52;;;7.80;99.90;;;;;;4946898;29;20032;-76
2022/11/06 04:55:29;;;;;;;0.10;0.10;;;7.80;99.90;;;;;;4927885;29;20055;-75
2022/11/06 04:57:55;;;;;;;0.30;0.30;;;7.80;99.90;;;;;;4940496;29;20035;-76
2022/11/06 05:00:21;;;;;;;4.28;2.70;;;7.80;99.90;;;;;;4942245;29;20114;-76
2022/11/06 05:02:47;;;;;;;0.20;0.20;;;7.90;99.90;;;;;;5013741;28;20167;-76
2022/11/06 05:05:13;;;;;;;0.20;0.20;;;7.90;99.90;;;;;;5020726;28;20041;-76
2022/11/06 05:07:41;;;;;;;0.20;0.20;;;7.90;99.90;;;;;;5023290;28;20036;-74
2022/11/06 05:10:08;;;;;;;0.10;0.10;;;6.30;99.90;;;;;;5035111;28;20044;-76
2022/11/06 05:12:36;;;;;;;0.10;0.10;;;8.00;99.90;;;;;;5049676;28;20208;-76
2022/11/06 05:15:10;;;;;;;0.10;0.10;;;7.90;99.90;;;;;;5051082;28;20029;-78
2022/11/06 05:17:39;;;;;;;0.20;0.20;;;7.90;99.90;;;;;;5035921;28;20025;-76
2022/11/06 05:20:05;;;;;;;0.20;0.20;;;7.90;99.90;;;;;;5056009;28;20008;-76
2022/11/06 05:25:16;;;;;;;0.10;0.10;;;9.70;99.90;;;;;;5056119;28;20024;-77
2022/11/06 05:27:41;;;;;;;0.20;0.20;;;7.90;99.90;;;;;;5038046;28;20014;-75
2022/11/06 05:30:10;;;;;;;0.20;0.20;;;7.90;99.90;;;;;;5055696;28;20033;-77
2022/11/06 05:32:44;;;;;;;0.10;0.10;;;7.90;99.90;;;;;;5055734;28;20060;-76
2022/11/06 05:35:35;;;;;;;0.10;0.10;;;7.90;99.90;;;;;;5036988;28;20016;-75
2022/11/06 05:38:03;;;;;;;0.20;0.20;;;7.90;99.90;;;;;;5013549;28;20015;-76
2022/11/06 05:40:29;;;;;;;0.20;0.20;;;7.90;99.90;;;;;;4993062;28;20084;-76
2022/11/06 05:42:55;;;;;;;0.20;0.20;;;7.90;99.90;;;;;;5012045;28;20041;-76
2022/11/06 05:45:21;;;;;;;0.20;0.20;;;8.00;99.90;;;;;;4996033;28;20014;-74
2022/11/06 05:47:46;;;;;;;0.20;0.20;;;8.00;99.90;;;;;;5012520;28;20049;-75
2022/11/06 05:50:12;;;;;;;0.20;0.20;;;8.00;99.90;;;;;;5012758;28;20019;-75
2022/11/06 05:52:38;;;;;;;0.40;0.40;;;8.00;99.90;;;;;;5009877;28;20033;-77
2022/11/06 05:55:05;;;;;;;0.10;0.10;;;8.00;99.90;;;;;;5009856;28;20054;-75
2022/11/06 05:57:31;;;;;;;0.20;0.20;;;8.10;99.90;;;;;;5012247;28;20018;-78
2022/11/06 06:00:03;;;;;;;0.20;0.20;;;8.10;99.90;;;;;;5011000;28;20061;-77
2022/11/06 06:02:58;;;;;;;0.20;0.20;;;8.10;99.90;;;;;;4995459;28;20022;-76
2022/11/06 06:05:23;;;;;;;0.20;0.20;;;8.10;99.90;;;;;;5012962;28;20029;-77
2022/11/06 06:07:49;;;;;;;2.35;2.25;;;8.10;99.90;;;;;;5016092;28;20007;-77
2022/11/06 06:10:26;;;;;;;0.10;0.10;;;8.10;99.90;;;;;;5035988;28;20094;-77
2022/11/06 06:13:00;;;;;;;0.20;0.20;;;8.10;99.90;;;;;;5036122;28;20010;-80
2022/11/06 06:15:27;;;;;;;0.20;0.20;;;8.10;99.90;;;;;;5034008;28;20030;-77
2022/11/06 06:17:52;;;;;;;0.20;0.20;;;8.10;99.90;;;;;;5029356;28;20053;-76
2022/11/06 06:20:20;;;;;;;0.10;0.10;;;8.10;99.90;;;;;;5031704;28;20044;-77
2022/11/06 06:23:01;;;;;;;14.82;14.27;;;8.10;99.90;;;;;;5034112;28;20034;-78
2022/11/06 06:25:31;;;;;;;0.10;0.10;;;8.10;99.90;;;;;;5033824;28;20045;-75
2022/11/06 06:28:16;;;;;;;0.20;0.20;;;8.10;99.90;;;;;;5034885;28;20033;-77
2022/11/06 06:31:04;;;;;;;0.10;0.10;;;8.10;99.90;;;;;;5034093;28;20038;-77
2022/11/06 06:33:30;;;;;;;0.30;0.30;;;8.10;99.90;;;;;;5035818;28;20056;-75
2022/11/06 06:36:00;;;;;;;0.20;0.20;;;8.10;99.90;;;;;;5037702;28;20026;-76
2022/11/06 06:38:32;;;;;;;0.20;0.20;;;8.20;99.90;;;;;;5038716;28;20044;-76
2022/11/06 06:41:08;;;;;;;0.20;0.20;;;8.20;99.90;;;;;;5037483;28;20037;-76
2022/11/06 06:43:34;;;;;;;0.10;0.10;;;9.50;99.90;;;;;;5035832;28;20042;-79
2022/11/06 06:46:04;;;;;;;0.20;0.20;;;8.30;99.90;;;;;;5037993;28;20174;-76
2022/11/06 06:48:36;;;;;;;0.10;0.10;;;8.20;99.90;;;;;;5032665;28;20105;-83
2022/11/06 06:51:03;;;;;;;0.20;0.20;;;8.30;99.90;;;;;;5036623;28;20025;-76
2022/11/06 06:53:29;;;;;;;0.20;0.20;;;8.30;99.90;;;;;;5036714;28;20088;-78
2022/11/06 06:56:16;;;;;;;0.10;0.10;;;8.30;99.90;;;;;;5051925;28;20064;-76
2022/11/06 06:58:42;;;;;;;1.20;1.20;;;9.30;99.90;;;;;;5057080;28;20021;-78
2022/11/06 07:01:15;;;;;;;0.20;0.20;;;8.40;99.90;;;;;;5057894;28;20081;-76
2022/11/06 07:03:41;;;;;;;0.20;0.20;;;8.40;99.90;;;;;;5054262;28;20026;-76
2022/11/06 07:06:07;;;;;;;0.40;0.40;;;8.40;99.90;;;;;;5037392;28;20092;-77
2022/11/06 07:08:33;;;;;;;0.10;0.10;;;8.50;99.90;;;;;;5039899;28;20048;-76
2022/11/06 07:11:04;;;;;;;0.20;0.20;;;8.50;99.90;;;;;;5057329;28;20085;-79
2022/11/06 07:13:35;;;;;;;0.17;0.17;;;8.50;99.90;;;;;;5054843;28;20032;-77
2022/11/06 07:16:15;;;;;;;0.20;0.20;;;8.50;99.90;;;;;;5055831;28;20032;-77
2022/11/06 07:18:53;;;;;;;0.25;0.25;;;8.50;99.90;;;;;;5040165;28;20057;-75
2022/11/06 07:21:23;;;;;;;0.47;0.47;;;8.60;99.90;;;;;;5058482;28;20009;-76
2022/11/06 07:24:08;;;;;;;0.30;0.30;;;8.60;99.90;;;;;;5054885;28;20046;-76
2022/11/06 07:26:41;;;;;;;0.10;0.10;;;8.60;99.90;;;;;;5052598;28;20026;-78
2022/11/06 07:29:08;;;;;;;0.10;0.10;;;8.60;99.90;;;;;;5054589;28;20025;-76
2022/11/06 07:31:34;;;;;;;0.10;0.10;;;8.60;99.90;;;;;;5055595;28;20021;-78
2022/11/06 07:33:59;;;;;;;0.20;0.20;;;8.60;99.90;;;;;;5050684;28;20025;-78
2022/11/06 07:36:25;;;;;;;0.10;0.10;;;8.60;99.90;;;;;;5049527;28;20075;-76
2022/11/06 07:38:51;;;;;;;0.10;0.10;;;8.50;99.90;;;;;;5050793;28;20037;-75
2022/11/06 07:41:19;;;;;;;0.20;0.20;;;8.60;99.90;;;;;;5043856;28;20438;-76
2022/11/06 07:43:48;;;;;;;0.10;0.10;;;8.50;99.90;;;;;;5031610;28;20036;-76
2022/11/06 07:46:14;;;;;;;0.20;0.20;;;8.60;99.90;;;;;;5034070;28;20076;-77
2022/11/06 07:48:40;;;;;;;0.20;0.20;;;8.50;99.90;;;;;;5036965;28;20213;-77
2022/11/06 07:51:10;;;;;;;0.20;0.20;;;8.50;99.90;;;;;;5038064;28;20018;-76
2022/11/06 07:53:36;;;;;;;0.45;0.45;;;8.40;99.90;;;;;;5036307;28;20052;-76
2022/11/06 07:56:14;;;;;;;0.10;0.10;;;8.30;99.90;;;;;;5020777;28;20098;-76
2022/11/06 07:58:41;;;;;;;0.20;0.20;;;8.30;99.90;;;;;;5029162;28;20037;-76
2022/11/06 08:01:36;;;;;;;0.10;0.10;;;8.30;99.90;;;;;;5049158;28;20044;-75
2022/11/06 08:04:02;;;;;;;0.10;0.10;;;8.30;99.90;;;;;;4990956;28;20050;-76
2022/11/06 08:06:28;;;;;;;0.20;0.20;;;8.30;99.90;;;;;;4987102;28;20081;-77
2022/11/06 08:09:00;;;;;;;1.05;1.05;;;8.30;99.90;;;;;;4972663;28;20055;-75
2022/11/06 08:11:28;;;;;;;0.10;0.10;;;7.50;99.90;;;;;;4988987;28;20030;-76
2022/11/06 08:14:04;;;;;;;0.20;0.20;;;8.30;99.90;;;;;;4990671;28;20062;-76
2022/11/06 08:16:30;;;;;;;0.13;0.13;;;8.40;99.90;;;;;;4988794;28;20033;-76
2022/11/06 08:19:04;;;;;;;0.20;0.20;;;8.30;99.90;;;;;;4991410;28;20074;-78
2022/11/06 08:21:31;;;;;;;0.20;0.20;;;8.40;99.90;;;;;;4971764;28;20136;-76
2022/11/06 08:24:05;;;;;;;0.20;0.20;;;8.50;99.90;;;;;;4987296;28;20765;-78
2022/11/06 08:26:58;;;;;;;0.20;0.20;;;8.60;99.90;;;;;;4973129;28;20022;-80
2022/11/06 08:29:33;;;;;;;0.17;0.17;;;8.60;99.90;;;;;;4973842;28;20111;-77
2022/11/06 08:32:01;;;;;;;0.20;0.20;;;8.80;99.90;;;;;;4990494;28;20022;-77
2022/11/06 08:34:27;;;;;;;0.20;0.20;;;8.80;99.90;;;;;;5006864;28;20037;-77
2022/11/06 08:36:53;;;;;;;0.10;0.10;;;8.90;99.90;;;;;;5053338;28;20040;-78
2022/11/06 08:39:19;;;;;;;0.10;0.10;;;8.90;99.90;;;;;;5046934;28;20081;-75
2022/11/06 08:41:48;;;;;;;0.20;0.20;;;9.00;99.90;;;;;;5048173;28;20093;-75
2022/11/06 08:44:13;;;;;;;0.15;0.15;;;6.00;99.90;;;;;;5047879;28;20033;-74
2022/11/06 08:46:39;;;;;;;0.10;0.10;;;9.10;99.90;;;;;;5028304;28;20065;-74
2022/11/06 08:49:11;;;;;;;0.20;0.20;;;9.10;99.90;;;;;;5036900;28;20056;-75
2022/11/06 08:51:48;;;;;;;0.20;0.20;;;9.10;99.90;;;;;;5051666;28;20044;-75
2022/11/06 08:54:35;;;;;;;0.20;0.20;;;9.10;99.90;;;;;;5050930;28;20025;-75
2022/11/06 08:57:21;;;;;;;0.20;0.20;;;9.10;99.90;;;;;;5051107;28;20026;-76
2022/11/06 08:59:47;;;;;;;0.10;0.10;;;9.00;99.90;;;;;;5053150;28;20025;-75
2022/11/06 09:02:14;;;;;;;0.13;0.13;;;9.00;99.90;;;;;;5042955;28;20081;-75
2022/11/06 09:04:40;;;;;;;0.10;0.10;;;9.00;99.90;;;;;;5011108;28;20285;-75
2022/11/06 09:22:38;;;;;;;0.20;0.20;;;9.10;99.90;;;;;;4529577;22;20048;-77
2022/11/06 09:25:07;;;;;;;0.20;0.20;;;9.10;99.90;;;;;;5072499;28;20033;-77
2022/11/06 09:27:39;;;;;;;0.10;0.10;;;9.10;99.90;;;;;;5046064;28;20042;-76
2022/11/06 09:30:06;;;;;;;0.20;0.20;;;9.10;99.90;;;;;;5041190;28;20530;-76
2022/11/06 09:48:25;;;;;;;0.10;0.10;;;9.20;99.90;;;;;;5369473;22;20053;-76
2022/11/06 09:51:24;;;;;;;0.93;0.93;;;9.20;99.90;;;;;;5051672;28;20050;-76
2022/11/06 09:53:59;;;;;;;0.20;0.20;;;9.20;99.90;;;;;;5051255;28;20026;-76
2022/11/06 09:56:39;;;;;;;0.20;0.20;;;9.10;99.90;;;;;;5070566;28;20006;-75
2022/11/06 09:59:10;;;;;;;0.20;0.20;;;9.20;99.90;;;;;;5073514;28;20013;-75
2022/11/06 10:01:51;;;;;;;0.68;0.68;;;9.20;99.90;;;;;;5051606;28;20004;-76
2022/11/06 10:04:32;;;;;;;0.20;0.20;;;9.20;99.90;;;;;;5054121;28;20021;-76
2022/11/06 10:06:58;;;;;;;0.13;0.13;;;10.90;99.90;;;;;;5057159;28;20102;-77
2022/11/06 10:09:24;;;;;;;0.20;0.20;;;9.20;99.90;;;;;;5060188;28;20262;-76
2022/11/06 10:12:11;;;;;;;0.10;0.10;;;9.20;99.90;;;;;;5130019;23;20021;-76
2022/11/06 10:15:02;;;;;;;0.20;0.20;;;9.20;99.90;;;;;;5038793;28;20057;-78
2022/11/06 10:17:55;;;;;;;14.80;13.25;;;9.20;99.90;;;;;;5047283;28;20013;-78
2022/11/06 10:20:46;;;;;;;0.20;0.20;;;9.20;99.90;;;;;;5041762;28;20006;-76
2022/11/06 10:23:49;;;;;;;3.70;3.50;;;9.20;99.90;;;;;;5042726;28;20040;-75
2022/11/06 10:26:21;;;;;;;0.20;0.20;;;9.20;99.90;;;;;;5055552;28;20028;-76
2022/11/06 10:28:58;;;;;;;7.55;5.72;;;9.20;99.90;;;;;;5058474;28;20061;-76
2022/11/06 10:31:42;;;;;;;0.20;0.20;;;9.20;99.90;;;;;;5059067;28;20730;-77
2022/11/06 10:34:14;;;;;;;1.50;1.45;;;9.20;99.90;;;;;;5059317;28;20056;-78
2022/11/06 10:36:55;;;;;;;0.93;0.93;;;9.10;99.90;;;;;;5059865;28;20030;-76
2022/11/06 10:39:26;;;;;;;0.30;0.30;;;9.10;99.90;;;;;;5042879;28;20034;-76
2022/11/06 10:42:30;;;;;;;0.20;0.20;;;9.10;99.90;;;;;;5058984;28;20025;-76
2022/11/06 10:45:14;;;;;;;0.10;0.10;;;9.00;99.90;;;;;;5058523;28;20026;-76
2022/11/06 10:47:43;;;;;;;;;;;9.00;99.90;;;;;;5059171;28;20094;-76
2022/11/06 10:51:11;;;;;;;0.20;0.20;;;9.00;99.90;;;;;;5058985;28;19893;-75
2022/11/06 10:53:52;;;;;;;0.20;0.20;;;8.90;99.90;;;;;;5056570;28;20030;-76
2022/11/06 10:56:43;;;;;;;0.20;0.20;;;8.90;99.90;;;;;;5057983;28;20006;-77
2022/11/06 10:59:08;;;;;;;0.20;0.20;;;8.90;99.90;;;;;;5056622;28;20013;-77
2022/11/06 11:01:36;;;;;;;46.70;42.97;;;8.90;99.90;;;;;;5057762;28;20036;-76
2022/11/06 11:04:02;;;;;;;0.17;0.17;;;8.80;99.90;;;;;;5058434;28;20025;-75
2022/11/06 11:06:28;;;;;;;0.10;0.10;;;8.90;99.90;;;;;;5058663;28;20010;-78
2022/11/06 11:08:53;;;;;;;8.73;8.35;;;8.90;99.90;;;;;;5058657;28;20025;-74
2022/11/06 11:11:24;;;;;;;0.20;0.20;;;9.00;99.90;;;;;;5059089;28;20002;-73
2022/11/06 11:13:59;;;;;;;0.20;0.20;;;8.90;99.90;;;;;;5058135;28;20079;-72
2022/11/06 11:16:33;;;;;;;0.20;0.20;;;8.90;99.90;;;;;;5059723;28;20335;-78
2022/11/06 11:19:24;;;;;;;0.20;0.20;;;8.90;99.90;;;;;;5058460;28;20002;-76
2022/11/06 11:22:19;;;;;;;4.95;4.75;;;9.00;99.90;;;;;;5058732;28;20013;-73
2022/11/06 11:25:00;;;;;;;0.20;0.20;;;9.00;99.90;;;;;;5058478;28;20021;-77
2022/11/06 11:27:27;;;;;;;0.22;0.22;;;9.00;99.90;;;;;;5058406;28;20048;-76
2022/11/06 11:29:53;;;;;;;0.20;0.20;;;9.00;99.90;;;;;;5058387;28;20029;-77
2022/11/06 11:32:20;;;;;;;0.20;0.20;;;9.10;99.90;;;;;;5057486;28;20020;-77
2022/11/06 11:34:55;;;;;;;0.10;0.10;;;9.10;99.90;;;;;;5052100;28;20026;-77
2022/11/06 12:11:29;;;;;;;0.20;0.20;;;9.30;99.90;;;;;;5033331;28;20060;-75
2022/11/06 12:14:18;;;;;;;0.20;0.20;;;9.40;99.90;;;;;;5036282;28;20006;-75
2022/11/06 12:16:49;;;;;;;0.20;0.20;;;9.30;99.90;;;;;;5035751;28;20005;-75
2022/11/06 12:19:17;;;;;;;0.10;0.10;;;9.40;99.90;;;;;;5036365;28;20010;-75
2022/11/06 12:21:48;;;;;;;0.20;0.20;;;9.40;99.90;;;;;;5036617;28;20002;-76
2022/11/06 12:24:26;;;;;;;0.20;0.20;;;9.40;99.90;;;;;;5056318;28;20025;-75
2022/11/06 12:27:03;;;;;;;0.10;0.10;;;9.40;99.90;;;;;;5056436;28;20052;-76
2022/11/06 12:30:05;;;;;;;0.20;0.20;;;9.30;99.90;;;;;;5056530;28;20029;-75
2022/11/06 12:32:33;;;;;;;0.20;0.20;;;9.30;99.90;;;;;;5054936;28;20029;-75
2022/11/06 12:35:21;;;;;;;0.20;0.20;;;9.40;99.90;;;;;;5056231;28;20086;-76
2022/11/06 12:37:53;;;;;;;0.20;0.20;;;9.40;99.90;;;;;;5038296;28;20010;-75
2022/11/06 12:40:20;;;;;;;0.20;0.20;;;9.40;99.90;;;;;;5039211;28;20123;-76
2022/11/06 12:43:20;;;;;;;0.10;0.10;;;9.40;99.90;;;;;;5054554;28;20009;-75
2022/11/06 12:48:59;;;;;;;0.10;0.10;;;9.40;99.90;;;;;;3274070;26;20089;-75
2022/11/06 12:51:52;;;;;;;0.20;0.20;;;9.50;99.90;;;;;;5031669;28;20066;-77
2022/11/06 12:54:49;;;;;;;0.20;0.20;;;9.50;99.90;;;;;;5031745;28;20006;-77
2022/11/06 12:57:36;;;;;;;0.30;0.30;;;9.50;99.90;;;;;;5017075;28;20010;-77
2022/11/06 13:00:13;;;;;;;0.45;0.45;;;9.50;99.90;;;;;;5034102;28;20006;-76
2022/11/06 13:03:00;;;;;;;0.20;0.20;;;9.50;99.90;;;;;;5034527;28;20041;-78
2022/11/06 13:05:37;;;;;;;0.20;0.20;;;9.50;99.90;;;;;;5028394;28;20034;-77
2022/11/06 13:08:29;;;;;;;0.10;0.10;;;9.50;99.90;;;;;;5016535;28;20082;-78
2022/11/06 13:11:28;;;;;;;0.20;0.20;;;9.50;99.90;;;;;;5015706;28;20072;-76
2022/11/06 13:14:09;;;;;;;0.10;0.10;;;9.40;99.90;;;;;;5020053;28;20017;-77
2022/11/06 13:17:02;;;;;;;0.20;0.20;;;10.20;99.90;;;;;;5037069;28;20041;-77
2022/11/06 13:20:09;;;;;;;0.40;0.40;;;9.50;99.90;;;;;;5037378;28;20049;-75
2022/11/06 13:22:47;;;;;;;0.20;0.20;;;9.50;99.90;;;;;;5055353;28;20021;-77
2022/11/06 13:25:46;;;;;;;2.10;2.05;;;9.50;99.90;;;;;;5054279;28;20025;-75
2022/11/06 13:28:15;;;;;;;0.10;0.10;;;9.50;99.90;;;;;;5054890;28;20076;-75
2022/11/06 13:30:42;;;;;;;3.45;3.28;;;9.50;99.90;;;;;;5052401;28;20010;-80
2022/11/06 13:33:33;;;;;;;0.10;0.10;;;9.50;99.90;;;;;;5050462;28;20021;-77
2022/11/06 13:35:59;;;;;;;0.20;0.20;;;9.50;99.90;;;;;;5053833;28;20079;-75
2022/11/06 13:38:41;;;;;;;0.38;0.38;;;9.50;99.90;;;;;;5053107;28;20056;-76
2022/11/06 13:41:17;;;;;;;0.20;0.20;;;9.50;99.90;;;;;;5054460;28;20017;-76
2022/11/06 13:43:57;;;;;;;0.20;0.20;;;9.50;99.90;;;;;;5055802;28;20037;-75
2022/11/06 13:46:36;;;;;;;0.20;0.20;;;9.50;99.90;;;;;;5052958;28;20447;-76
2022/11/06 13:49:04;;;;;;;0.10;0.10;;;9.40;99.90;;;;;;5055989;28;20076;-76
2022/11/06 13:51:49;;;;;;;6.15;5.72;;;9.40;99.90;;;;;;5058557;28;20006;-78
2022/11/06 13:54:20;;;;;;;2.65;2.55;;;9.30;99.90;;;;;;5058289;28;20056;-79
2022/11/06 13:56:54;;;;;;;0.20;0.20;;;9.30;99.90;;;;;;5057513;28;20005;-76
2022/11/06 13:59:22;;;;;;;0.50;0.50;;;9.30;99.90;;;;;;5057058;28;20017;-75
2022/11/06 14:02:43;;;;;;;0.20;0.20;;;9.30;99.90;;;;;;5058496;28;20070;-75
2022/11/06 14:05:30;;;;;;;0.20;0.20;;;9.10;99.90;;;;;;4998854;28;20123;-75
2022/11/06 14:08:02;;;;;;;0.20;0.20;;;9.10;99.90;;;;;;4998964;28;20031;-75
2022/11/06 14:10:36;;;;;;;0.20;0.20;;;9.10;99.90;;;;;;4999617;28;20007;-76
2022/11/06 14:13:04;;;;;;;0.10;0.10;;;9.10;99.90;;;;;;4982611;28;20015;-77
2022/11/06 14:15:45;;;;;;;0.68;0.68;;;9.10;99.90;;;;;;4983691;28;20021;-76
2022/11/06 14:18:39;;;;;;;0.75;0.75;;;9.10;99.90;;;;;;4999858;28;20078;-76
2022/11/06 14:21:25;;;;;;;0.32;0.32;;;9.20;99.90;;;;;;5001086;28;20027;-76
2022/11/06 14:24:15;;;;;;;0.20;0.20;;;9.10;99.90;;;;;;5000287;28;20038;-75
2022/11/06 14:26:41;;;;;;;0.20;0.20;;;9.10;99.90;;;;;;4961569;29;20027;-78
2022/11/06 14:29:25;;;;;;;0.20;0.20;;;9.10;99.90;;;;;;4961691;29;20083;-76
2022/11/06 14:32:09;;;;;;;0.10;0.10;;;9.10;99.90;;;;;;4961254;29;20034;-76
2022/11/06 14:34:41;;;;;;;;;;;9.10;99.90;;;;;;4961828;29;20039;-75
2022/11/06 14:37:46;;;;;;;0.10;0.10;;;9.10;99.90;;;;;;4961552;29;19895;-78
2022/11/06 14:40:33;;;;;;;0.20;0.20;;;9.00;99.90;;;;;;4959708;28;20040;-75
2022/11/06 14:42:58;;;;;;;0.90;0.90;;;9.00;99.90;;;;;;4960344;28;20047;-76
2022/11/06 14:45:25;;;;;;;0.20;0.20;;;9.00;99.90;;;;;;4960460;28;20125;-76
2022/11/06 14:47:55;;;;;;;0.20;0.20;;;9.00;99.90;;;;;;4961533;28;20047;-76
2022/11/06 14:50:36;;;;;;;0.20;0.20;;;9.00;99.90;;;;;;4960489;29;20092;-76
2022/11/06 14:53:28;;;;;;;4.40;4.28;;;9.00;99.90;;;;;;4961618;28;20071;-76
2022/11/06 14:56:05;;;;;;;0.20;0.20;;;9.00;99.90;;;;;;4885956;29;20046;-76
2022/11/06 14:58:40;;;;;;;0.82;0.82;;;9.10;99.90;;;;;;4885443;29;20038;-77
2022/11/06 15:01:08;;;;;;;3.63;3.40;;;9.00;99.90;;;;;;4885317;29;20033;-76
2022/11/06 15:03:51;;;;;;;3.72;3.53;;;10.20;99.90;;;;;;4894472;29;20060;-76
2022/11/06 15:06:17;;;;;;;0.20;0.20;;;9.00;99.90;;;;;;4887915;29;20146;-76
2022/11/06 15:08:48;;;;;;;2.65;2.55;;;9.00;99.90;;;;;;4904233;29;20021;-76
2022/11/06 15:11:29;;;;;;;0.63;0.63;;;9.00;99.90;;;;;;4903256;29;20674;-76
2022/11/06 15:14:15;;;;;;;0.85;0.85;;;9.00;99.90;;;;;;4887162;29;20021;-76
2022/11/06 15:16:48;;;;;;;0.20;0.20;;;9.00;99.90;;;;;;4908684;28;20035;-77
2022/11/06 15:19:21;;;;;;;0.10;0.10;;;9.00;99.90;;;;;;4963895;28;20087;-76
2022/11/06 15:22:45;;;;;;;0.20;0.20;;;9.00;99.90;;;;;;4979733;28;20007;-76
2022/11/06 15:25:11;;;;;;;0.20;0.20;;;9.00;99.90;;;;;;4902394;29;20040;-76
2022/11/06 15:27:45;;;;;;;0.20;0.20;;;9.00;99.90;;;;;;4902629;29;20013;-77
2022/11/06 15:30:18;;;;;;;2.60;2.50;;;9.00;99.90;;;;;;4888116;29;20028;-75
2022/11/06 15:32:47;;;;;;;14.80;13.90;;;8.90;99.90;;;;;;4906175;29;20678;-75
2022/11/06 15:35:26;;;;;;;0.32;0.32;;;8.90;99.90;;;;;;4924890;29;20053;-75